createdAt,value
2023-06-18T00:01:36.339Z,4.40
2023-06-18T00:04:03.411Z,4.30
2023-06-18T00:06:31.177Z,5.10
2023-06-18T00:08:58.874Z,4.40
2023-06-18T00:11:25.671Z,4.10
2023-06-18T00:13:52.491Z,4.40
2023-06-18T00:16:19.216Z,4.60
2023-06-18T00:18:45.880Z,4.40
2023-06-18T00:21:12.922Z,4.60
2023-06-18T00:23:39.671Z,4.40
2023-06-18T00:26:06.450Z,4.30
2023-06-18T00:28:34.186Z,5.10
2023-06-18T00:31:02.150Z,4.60
2023-06-18T00:33:30.128Z,4.60
2023-06-18T00:35:59.719Z,5.30
2023-06-18T00:38:29.522Z,4.60
2023-06-18T00:40:56.242Z,4.50
2023-06-18T00:43:23.142Z,5.60
2023-06-18T00:45:50.846Z,4.90
2023-06-18T00:48:17.798Z,4.60
2023-06-18T00:50:45.463Z,5.30
2023-06-18T00:53:14.022Z,5.40
2023-06-18T00:55:42.015Z,4.90
2023-06-18T00:58:08.768Z,4.00
2023-06-18T01:00:37.267Z,4.50
2023-06-18T01:03:05.922Z,4.60
2023-06-18T01:05:34.356Z,5.00
2023-06-18T01:08:06.749Z,4.60
2023-06-18T01:10:39.470Z,5.00
2023-06-18T01:13:08.697Z,5.50
2023-06-18T01:15:36.405Z,5.00
2023-06-18T01:18:07.670Z,4.90
2023-06-18T01:23:16.310Z,5.70
2023-06-18T01:25:44.419Z,5.20
2023-06-18T01:28:11.308Z,5.60
2023-06-18T01:30:40.144Z,5.60
2023-06-18T01:33:13.283Z,5.00
2023-06-18T01:35:40.393Z,5.00
2023-06-18T01:38:25.359Z,4.70
2023-06-18T01:40:55.607Z,4.60
2023-06-18T01:43:33.369Z,4.60
2023-06-18T01:46:05.644Z,5.30
2023-06-18T01:48:38.627Z,6.00
2023-06-18T01:51:05.489Z,5.40
2023-06-18T01:53:35.096Z,5.50
2023-06-18T01:56:02.503Z,5.30
2023-06-18T01:58:34.177Z,5.00
2023-06-18T02:01:01.553Z,5.20
2023-06-18T02:03:28.520Z,5.70
2023-06-18T02:05:55.557Z,5.30
2023-06-18T02:08:23.272Z,5.80
2023-06-18T02:10:50.673Z,5.50
2023-06-18T02:13:18.451Z,5.70
2023-06-18T02:15:46.341Z,4.90
2023-06-18T02:18:13.573Z,5.30
2023-06-18T02:20:40.731Z,4.90
2023-06-18T02:23:07.595Z,5.20
2023-06-18T02:25:34.605Z,4.80
2023-06-18T02:28:04.992Z,5.20
2023-06-18T02:30:31.674Z,5.00
2023-06-18T02:32:59.447Z,5.20
2023-06-18T02:35:26.861Z,5.00
2023-06-18T02:37:54.030Z,5.20
2023-06-18T02:40:21.544Z,5.40
2023-06-18T02:42:48.931Z,4.90
2023-06-18T02:45:16.971Z,5.20
2023-06-18T02:47:47.723Z,5.70
2023-06-18T02:50:15.634Z,5.00
2023-06-18T02:52:43.372Z,5.10
2023-06-18T02:55:10.936Z,5.30
2023-06-18T02:57:39.493Z,5.30
2023-06-18T03:00:11.751Z,5.40
2023-06-18T03:02:40.546Z,5.10
2023-06-18T03:05:09.239Z,4.80
2023-06-18T03:07:36.177Z,5.10
2023-06-18T03:10:03.553Z,4.90
2023-06-18T03:12:31.271Z,5.00
2023-06-18T03:14:58.959Z,5.80
2023-06-18T03:17:26.389Z,5.30
2023-06-18T03:19:53.434Z,5.70
2023-06-18T03:22:21.469Z,5.30
2023-06-18T03:24:49.737Z,5.20
2023-06-18T03:27:16.962Z,5.50
2023-06-18T03:29:44.638Z,5.40
2023-06-18T03:32:12.231Z,5.50
2023-06-18T03:34:42.705Z,5.30
2023-06-18T03:37:12.312Z,4.60
2023-06-18T03:39:39.889Z,5.10
2023-06-18T03:42:06.798Z,4.90
2023-06-18T03:44:33.730Z,5.60
2023-06-18T03:47:00.668Z,5.00
2023-06-18T03:49:27.555Z,5.00
2023-06-18T03:51:54.279Z,5.10
2023-06-18T03:54:24.930Z,4.70
2023-06-18T03:56:52.530Z,4.90
2023-06-18T03:59:20.010Z,5.10
2023-06-18T04:01:47.251Z,4.40
2023-06-18T04:04:13.921Z,5.20
2023-06-18T04:06:41.231Z,4.70
2023-06-18T04:09:09.249Z,4.60
2023-06-18T04:11:38.792Z,5.20
2023-06-18T04:14:05.781Z,5.00
2023-06-18T04:16:33.751Z,4.90
2023-06-18T04:19:01.012Z,5.50
2023-06-18T04:21:28.612Z,4.80
2023-06-18T04:23:55.822Z,5.50
2023-06-18T04:26:23.646Z,5.20
2023-06-18T04:28:51.217Z,5.00
2023-06-18T04:31:18.168Z,5.00
2023-06-18T04:33:45.685Z,5.00
2023-06-18T04:36:13.412Z,4.60
2023-06-18T04:38:42.028Z,5.00
2023-06-18T04:41:09.029Z,5.50
2023-06-18T04:43:35.997Z,5.10
2023-06-18T04:46:03.445Z,5.20
2023-06-18T04:48:31.903Z,4.60
2023-06-18T04:50:59.516Z,5.40
2023-06-18T04:53:26.803Z,5.00
2023-06-18T04:55:53.653Z,4.60
2023-06-18T04:58:21.202Z,4.70
2023-06-18T05:00:48.269Z,4.60
2023-06-18T05:03:15.133Z,5.10
2023-06-18T05:05:42.643Z,4.60
2023-06-18T05:08:09.488Z,5.60
2023-06-18T05:10:37.067Z,4.90
2023-06-18T05:13:04.233Z,5.10
2023-06-18T05:15:31.900Z,4.20
2023-06-18T05:17:59.577Z,4.60
2023-06-18T05:20:26.440Z,5.20
2023-06-18T05:22:53.807Z,5.50
2023-06-18T05:25:20.811Z,4.90
2023-06-18T05:27:47.683Z,5.00
2023-06-18T05:30:14.434Z,5.10
2023-06-18T05:32:41.464Z,4.60
2023-06-18T05:35:11.441Z,5.80
2023-06-18T05:37:44.377Z,5.00
2023-06-18T05:40:11.832Z,5.50
2023-06-18T05:42:41.510Z,5.20
2023-06-18T05:47:36.525Z,5.20
2023-06-18T05:50:06.630Z,5.10
2023-06-18T05:52:33.919Z,4.90
2023-06-18T05:55:00.873Z,5.10
2023-06-18T05:57:28.095Z,5.50
2023-06-18T05:59:55.627Z,5.50
2023-06-18T06:02:22.484Z,4.60
2023-06-18T06:04:49.204Z,5.40
2023-06-18T06:07:16.036Z,5.40
2023-06-18T06:09:43.216Z,5.00
2023-06-18T06:12:11.367Z,5.10
2023-06-18T06:14:38.248Z,5.20
2023-06-18T06:17:05.629Z,4.80
2023-06-18T06:19:32.610Z,5.00
2023-06-18T06:21:59.671Z,4.90
2023-06-18T06:24:27.234Z,4.90
2023-06-18T06:26:53.969Z,4.90
2023-06-18T06:29:21.111Z,4.80
2023-06-18T06:31:49.646Z,5.10
2023-06-18T06:34:16.984Z,5.30
2023-06-18T06:36:43.973Z,5.10
2023-06-18T06:39:11.417Z,4.80
2023-06-18T06:41:38.300Z,4.60
2023-06-18T06:44:05.115Z,4.90
2023-06-18T06:46:46.033Z,4.80
2023-06-18T06:49:36.494Z,5.30
2023-06-18T06:52:26.101Z,4.90
2023-06-18T06:54:54.846Z,4.70
2023-06-18T06:57:22.111Z,5.00
2023-06-18T06:59:49.073Z,5.40
2023-06-18T07:02:16.553Z,5.40
2023-06-18T07:04:46.760Z,4.90
2023-06-18T07:09:41.206Z,5.00
2023-06-18T07:12:08.344Z,5.10
2023-06-18T07:14:36.075Z,4.80
2023-06-18T07:17:03.039Z,5.00
2023-06-18T07:19:30.475Z,4.80
2023-06-18T07:21:57.260Z,5.00
2023-06-18T07:24:24.464Z,5.00
2023-06-18T07:26:51.516Z,5.50
2023-06-18T07:29:18.295Z,5.00
2023-06-18T07:31:45.251Z,5.20
2023-06-18T07:34:11.966Z,5.90
2023-06-18T07:36:38.744Z,5.30
2023-06-18T07:39:05.482Z,5.90
2023-06-18T07:41:32.136Z,5.60
2023-06-18T07:43:58.939Z,6.10
2023-06-18T07:46:26.248Z,5.60
2023-06-18T07:48:53.159Z,6.20
2023-06-18T07:51:20.517Z,6.20
2023-06-18T07:53:47.287Z,5.50
2023-06-18T07:56:14.217Z,6.00
2023-06-18T07:58:41.050Z,5.80
2023-06-18T08:01:07.754Z,5.40
2023-06-18T08:03:34.646Z,6.20
2023-06-18T08:06:01.502Z,5.80
2023-06-18T08:08:30.279Z,5.20
2023-06-18T08:10:57.441Z,5.60
2023-06-18T08:13:24.221Z,6.00
2023-06-18T08:15:51.069Z,6.20
2023-06-18T08:18:17.925Z,5.70
2023-06-18T08:20:44.842Z,6.70
2023-06-18T08:23:12.011Z,5.20
2023-06-18T08:25:38.963Z,6.20
2023-06-18T08:28:06.141Z,5.60
2023-06-18T08:30:33.028Z,6.10
2023-06-18T08:32:59.934Z,6.30
2023-06-18T08:35:26.962Z,6.50
2023-06-18T08:37:53.759Z,6.90
2023-06-18T08:40:21.984Z,5.50
2023-06-18T08:43:05.653Z,6.10
2023-06-18T08:45:34.175Z,6.40
2023-06-18T08:48:04.566Z,6.60
2023-06-18T08:50:33.789Z,6.30
2023-06-18T08:53:00.826Z,6.20
2023-06-18T08:55:27.749Z,6.10
2023-06-18T08:57:59.099Z,6.40
2023-06-18T09:00:25.881Z,6.90
2023-06-18T09:02:52.685Z,6.30
2023-06-18T09:05:19.719Z,6.40
2023-06-18T09:07:47.641Z,6.80
2023-06-18T09:10:14.715Z,6.20
2023-06-18T09:12:42.330Z,5.50
2023-06-18T09:15:09.452Z,5.70
2023-06-18T09:17:38.642Z,6.40
2023-06-18T09:20:07.102Z,6.60
2023-06-18T09:22:43.985Z,7.50
2023-06-18T09:25:10.752Z,6.70
2023-06-18T09:27:40.584Z,6.80
2023-06-18T09:30:07.868Z,6.70
2023-06-18T09:32:45.689Z,6.00
2023-06-18T09:35:14.304Z,6.60
2023-06-18T09:37:42.248Z,6.30
2023-06-18T09:40:15.066Z,6.40
2023-06-18T09:42:42.328Z,6.10
2023-06-18T09:45:10.139Z,6.50
2023-06-18T09:47:50.408Z,6.30
2023-06-18T09:50:17.165Z,5.70
2023-06-18T09:52:49.831Z,6.60
2023-06-18T09:55:32.410Z,6.30
2023-06-18T09:58:00.204Z,6.00
2023-06-18T10:00:27.185Z,6.30
2023-06-18T10:02:53.952Z,5.60
2023-06-18T10:05:21.445Z,6.30
2023-06-18T10:07:49.525Z,6.10
2023-06-18T10:10:16.669Z,6.50
2023-06-18T10:12:44.072Z,6.50
2023-06-18T10:15:11.893Z,6.80
2023-06-18T10:17:43.866Z,6.60
2023-06-18T10:20:14.709Z,6.60
2023-06-18T10:22:46.423Z,6.80
2023-06-18T10:27:40.666Z,6.90
2023-06-18T10:30:08.499Z,6.60
2023-06-18T10:32:36.268Z,6.70
2023-06-18T10:35:08.040Z,6.60
2023-06-18T10:37:36.285Z,6.00
2023-06-18T10:40:05.762Z,7.20
2023-06-18T10:42:33.598Z,6.50
2023-06-18T10:45:09.841Z,7.40
2023-06-18T10:47:36.955Z,7.10
2023-06-18T10:50:03.795Z,6.90
2023-06-18T10:52:32.187Z,7.10
2023-06-18T10:55:09.396Z,6.90
2023-06-18T10:57:41.297Z,7.00
2023-06-18T11:00:19.256Z,7.30
2023-06-18T11:02:47.634Z,7.10
2023-06-18T11:05:16.093Z,7.50
2023-06-18T11:07:42.907Z,6.70
2023-06-18T11:10:10.518Z,8.10
2023-06-18T11:12:38.796Z,7.20
2023-06-18T11:15:16.739Z,7.80
2023-06-18T11:17:52.358Z,7.80
2023-06-18T11:20:21.473Z,7.70
2023-06-18T11:22:48.582Z,8.80
2023-06-18T11:25:15.875Z,8.40
2023-06-18T11:27:45.633Z,8.20
2023-06-18T11:30:14.195Z,8.00
2023-06-18T11:32:42.755Z,7.70
2023-06-18T11:35:10.427Z,8.50
2023-06-18T11:37:44.651Z,7.90
2023-06-18T11:40:11.718Z,7.40
2023-06-18T11:42:48.138Z,8.10
2023-06-18T11:45:15.091Z,8.40
2023-06-18T11:47:49.394Z,7.70
2023-06-18T11:50:17.258Z,7.50
2023-06-18T11:52:44.840Z,7.60
2023-06-18T11:55:12.010Z,7.70
2023-06-18T11:57:39.916Z,6.60
2023-06-18T12:00:10.833Z,7.80
2023-06-18T12:02:41.061Z,7.30
2023-06-18T12:05:08.630Z,8.20
2023-06-18T12:07:39.222Z,7.60
2023-06-18T12:10:08.138Z,6.90
2023-06-18T12:12:56.171Z,7.10
2023-06-18T12:15:31.476Z,8.00
2023-06-18T12:18:15.892Z,8.50
2023-06-18T12:20:42.770Z,7.60
2023-06-18T12:23:12.455Z,7.80
2023-06-18T12:25:39.271Z,7.80
2023-06-18T12:28:07.559Z,7.40
2023-06-18T12:30:39.028Z,8.20
2023-06-18T12:33:10.203Z,7.60
2023-06-18T12:35:37.313Z,8.10
2023-06-18T12:38:10.838Z,7.50
2023-06-18T12:40:56.420Z,7.60
2023-06-18T12:43:23.483Z,7.60
2023-06-18T12:45:51.289Z,7.80
2023-06-18T12:48:21.391Z,6.80
2023-06-18T12:50:48.993Z,7.90
2023-06-18T12:53:23.612Z,6.70
2023-06-18T12:55:54.750Z,7.10
2023-06-18T12:58:27.196Z,7.10
2023-06-18T13:00:56.652Z,7.00
2023-06-18T13:03:23.968Z,7.20
2023-06-18T13:05:50.976Z,6.40
2023-06-18T13:08:21.878Z,6.30
2023-06-18T13:10:50.959Z,7.60
2023-06-18T13:13:18.082Z,7.80
2023-06-18T13:15:45.853Z,7.80
2023-06-18T13:18:13.477Z,7.30
2023-06-18T13:20:40.570Z,7.50
2023-06-18T13:23:07.321Z,7.40
2023-06-18T13:25:34.227Z,6.90
2023-06-18T13:28:02.851Z,6.40
2023-06-18T13:30:31.540Z,6.20
2023-06-18T13:32:58.625Z,7.80
2023-06-18T13:35:25.843Z,7.70
2023-06-18T13:37:53.256Z,7.00
2023-06-18T13:40:20.115Z,6.90
2023-06-18T13:42:46.941Z,6.50
2023-06-18T13:45:14.580Z,7.30
2023-06-18T13:47:41.993Z,7.30
2023-06-18T13:50:09.878Z,8.00
2023-06-18T13:52:36.800Z,7.50
2023-06-18T13:55:03.907Z,6.50
2023-06-18T13:57:31.769Z,7.00
2023-06-18T13:59:58.503Z,7.30
2023-06-18T14:02:25.320Z,7.10
2023-06-18T14:04:52.187Z,7.40
2023-06-18T14:07:19.557Z,6.90
2023-06-18T14:09:46.693Z,7.00
2023-06-18T14:12:15.571Z,7.10
2023-06-18T14:14:42.884Z,6.80
2023-06-18T14:17:12.494Z,6.70
2023-06-18T14:19:40.286Z,6.90
2023-06-18T14:22:07.647Z,6.30
2023-06-18T14:24:35.242Z,5.60
2023-06-18T14:27:02.886Z,5.90
2023-06-18T14:29:33.152Z,6.10
2023-06-18T14:32:00.507Z,5.90
2023-06-18T14:34:27.301Z,5.30
2023-06-18T14:36:55.872Z,5.80
2023-06-18T14:39:23.477Z,5.30
2023-06-18T14:41:51.928Z,5.20
2023-06-18T14:44:19.045Z,5.40
2023-06-18T14:46:45.986Z,5.60
2023-06-18T14:49:12.770Z,5.20
2023-06-18T14:51:39.541Z,4.90
2023-06-18T14:54:12.933Z,4.50
2023-06-18T14:56:44.068Z,4.90
2023-06-18T14:59:10.958Z,4.80
2023-06-18T15:01:38.218Z,5.10
2023-06-18T15:04:06.719Z,4.70
2023-06-18T15:06:34.514Z,4.90
2023-06-18T15:09:02.392Z,4.30
2023-06-18T15:11:29.822Z,4.30
2023-06-18T15:13:56.726Z,4.40
2023-06-18T15:16:23.855Z,4.10
2023-06-18T15:18:52.349Z,3.90
2023-06-18T15:21:19.579Z,3.20
2023-06-18T15:23:46.540Z,3.40
2023-06-18T15:26:14.774Z,4.10
2023-06-18T15:28:42.809Z,3.60
2023-06-18T15:31:11.430Z,3.70
2023-06-18T15:33:38.781Z,3.70
2023-06-18T15:36:05.574Z,3.70
2023-06-18T15:38:32.909Z,3.80
2023-06-18T15:40:59.762Z,5.50
2023-06-18T15:43:27.466Z,4.60
2023-06-18T15:45:55.463Z,4.70
2023-06-18T15:48:22.749Z,4.70
2023-06-18T15:50:49.586Z,3.80
2023-06-18T15:53:16.744Z,4.00
2023-06-18T15:55:43.468Z,4.00
2023-06-18T15:58:10.329Z,3.30
2023-06-18T16:00:37.104Z,4.20
2023-06-18T16:03:04.075Z,3.70
2023-06-18T16:05:31.418Z,4.10
2023-06-18T16:07:58.174Z,3.80
2023-06-18T16:10:25.070Z,3.90
2023-06-18T16:12:52.044Z,3.50
2023-06-18T16:15:19.190Z,3.30
2023-06-18T16:17:46.103Z,3.50
2023-06-18T16:20:12.944Z,3.90
2023-06-18T16:22:40.023Z,4.30
2023-06-18T16:25:06.999Z,4.20
2023-06-18T16:27:33.935Z,4.30
2023-06-18T16:30:01.119Z,4.40
2023-06-18T16:32:28.657Z,4.30
2023-06-18T16:34:56.499Z,4.80
2023-06-18T16:37:23.823Z,4.40
2023-06-18T16:39:52.490Z,4.70
2023-06-18T16:42:19.229Z,4.80
2023-06-18T16:44:45.957Z,4.10
2023-06-18T16:47:12.918Z,4.50
2023-06-18T16:49:39.683Z,4.40
2023-06-18T16:52:06.969Z,4.40
2023-06-18T16:54:33.794Z,4.50
2023-06-18T16:57:00.657Z,3.80
2023-06-18T16:59:28.261Z,4.00
2023-06-18T17:01:55.142Z,4.30
2023-06-18T17:04:23.958Z,4.80
2023-06-18T17:06:50.714Z,4.10
2023-06-18T17:09:18.337Z,4.00
2023-06-18T17:11:45.740Z,3.60
2023-06-18T17:14:12.680Z,3.90
2023-06-18T17:16:40.053Z,3.90
2023-06-18T17:19:07.069Z,4.00
2023-06-18T17:21:33.813Z,4.90
2023-06-18T17:24:02.581Z,4.90
2023-06-18T17:26:29.719Z,5.10
2023-06-18T17:28:56.763Z,4.70
2023-06-18T17:31:24.393Z,5.00
2023-06-18T17:33:51.197Z,5.60
2023-06-18T17:36:18.588Z,4.80
2023-06-18T17:38:47.815Z,5.60
2023-06-18T17:41:14.707Z,5.30
2023-06-18T17:43:41.525Z,4.80
2023-06-18T17:46:14.995Z,4.80
2023-06-18T17:48:43.181Z,4.80
2023-06-18T17:51:11.110Z,4.80
2023-06-18T17:53:40.084Z,5.20
2023-06-18T17:56:07.412Z,5.30
2023-06-18T17:58:34.821Z,4.60
2023-06-18T18:01:01.578Z,4.10
2023-06-18T18:03:29.612Z,4.50
2023-06-18T18:05:56.644Z,4.80
2023-06-18T18:08:23.536Z,4.60
2023-06-18T18:10:50.400Z,4.80
2023-06-18T18:13:20.763Z,5.10
2023-06-18T18:15:47.651Z,5.60
2023-06-18T18:18:15.520Z,5.50
2023-06-18T18:20:42.183Z,6.10
2023-06-18T18:23:09.060Z,5.40
2023-06-18T18:25:35.878Z,5.70
2023-06-18T18:28:03.192Z,5.80
2023-06-18T18:30:31.644Z,5.50
2023-06-18T18:32:58.719Z,5.80
2023-06-18T18:35:26.391Z,5.50
2023-06-18T18:37:53.442Z,6.10
2023-06-18T18:40:20.430Z,6.10
2023-06-18T18:42:55.172Z,6.90
2023-06-18T18:45:24.209Z,6.10
2023-06-18T18:47:51.888Z,5.70
2023-06-18T18:50:20.837Z,6.80
2023-06-18T18:52:48.273Z,6.30
2023-06-18T18:55:15.056Z,5.70
2023-06-18T18:57:42.228Z,6.70
2023-06-18T19:00:09.527Z,6.20
2023-06-18T19:02:36.608Z,5.60
2023-06-18T19:05:03.761Z,5.80
2023-06-18T19:07:30.708Z,6.20
2023-06-18T19:09:57.661Z,6.00
2023-06-18T19:12:24.748Z,5.40
2023-06-18T19:14:51.560Z,6.50
2023-06-18T19:17:19.013Z,6.00
2023-06-18T19:19:45.853Z,4.80
2023-06-18T19:22:12.786Z,5.40
2023-06-18T19:24:39.635Z,5.20
2023-06-18T19:27:06.784Z,5.20
2023-06-18T19:29:34.108Z,5.40
2023-06-18T19:32:00.861Z,5.20
2023-06-18T19:34:27.860Z,5.10
2023-06-18T19:36:54.712Z,5.10
2023-06-18T19:39:23.363Z,5.60
2023-06-18T19:41:50.069Z,5.30
2023-06-18T19:44:17.011Z,5.40
2023-06-18T19:46:46.444Z,5.10
2023-06-18T19:49:13.311Z,5.40
2023-06-18T19:51:40.066Z,5.40
2023-06-18T19:54:06.854Z,6.50
2023-06-18T19:56:33.960Z,6.20
2023-06-18T19:59:00.813Z,6.60
2023-06-18T20:01:27.876Z,5.80
2023-06-18T20:03:54.708Z,5.80
2023-06-18T20:06:21.944Z,5.20
2023-06-18T20:08:48.595Z,5.90
2023-06-18T20:11:16.331Z,5.40
2023-06-18T20:13:43.214Z,5.30
2023-06-18T20:16:10.015Z,5.80
2023-06-18T20:18:36.884Z,6.30
2023-06-18T20:21:03.895Z,5.90
2023-06-18T20:23:33.474Z,4.80
2023-06-18T20:26:01.548Z,5.20
2023-06-18T20:28:28.427Z,4.90
2023-06-18T20:30:55.289Z,4.90
2023-06-18T20:33:22.079Z,4.80
2023-06-18T20:35:48.813Z,5.00
2023-06-18T20:38:17.376Z,4.10
2023-06-18T20:40:44.354Z,4.20
2023-06-18T20:43:12.762Z,4.70
2023-06-18T20:45:39.558Z,4.00
2023-06-18T20:48:06.583Z,4.80
2023-06-18T20:50:33.630Z,3.50
2023-06-18T20:53:00.482Z,4.30
2023-06-18T20:55:27.168Z,4.20
2023-06-18T20:57:55.156Z,3.70
2023-06-18T21:00:22.078Z,4.00
2023-06-18T21:05:02.608Z,3.20
2023-06-18T21:07:29.711Z,4.40
2023-06-18T21:09:56.835Z,3.10
2023-06-18T21:12:24.014Z,3.20
2023-06-18T21:14:50.957Z,3.50
2023-06-18T21:17:17.885Z,2.70
2023-06-18T21:19:45.366Z,3.10
2023-06-18T21:22:12.934Z,3.30
2023-06-18T21:24:40.743Z,2.80
2023-06-18T21:27:07.768Z,2.80
2023-06-18T21:29:34.805Z,3.00
2023-06-18T21:32:01.754Z,2.70
2023-06-18T21:34:28.712Z,2.80
2023-06-18T21:36:57.745Z,2.70
2023-06-18T21:39:24.652Z,3.00
2023-06-18T21:41:52.935Z,2.90
2023-06-18T21:44:20.188Z,2.40
2023-06-18T21:46:47.059Z,2.60
2023-06-18T21:49:14.131Z,2.50
2023-06-18T21:51:41.688Z,3.00
2023-06-18T21:54:08.741Z,2.90
2023-06-18T21:56:35.548Z,2.40
2023-06-18T21:59:02.527Z,2.50
2023-06-18T22:01:29.881Z,2.60
2023-06-18T22:03:57.700Z,2.60
2023-06-18T22:06:24.647Z,2.90
2023-06-18T22:08:52.632Z,2.30
2023-06-18T22:11:20.873Z,2.20
2023-06-18T22:13:48.027Z,2.20
2023-06-18T22:16:15.346Z,2.80
2023-06-18T22:18:42.423Z,2.60
2023-06-18T22:21:10.934Z,2.40
2023-06-18T22:23:39.169Z,2.00
2023-06-18T22:26:06.478Z,2.10
2023-06-18T22:28:33.663Z,2.60
2023-06-18T22:31:00.579Z,1.90
2023-06-18T22:33:31.026Z,2.50
2023-06-18T22:35:58.076Z,2.70
2023-06-18T22:38:26.854Z,2.20
2023-06-18T22:40:55.272Z,2.00
2023-06-18T22:43:23.929Z,2.10
2023-06-18T22:45:50.899Z,2.50
2023-06-18T22:48:17.879Z,2.00
2023-06-18T22:50:44.800Z,2.40
2023-06-18T22:53:12.368Z,2.30
2023-06-18T22:55:39.607Z,2.70
2023-06-18T22:58:07.595Z,2.50
2023-06-18T23:00:35.723Z,2.30
2023-06-18T23:03:03.181Z,2.60
2023-06-18T23:05:30.639Z,2.70
2023-06-18T23:07:57.483Z,2.40
2023-06-18T23:10:24.925Z,2.30
2023-06-18T23:12:52.658Z,2.40
2023-06-18T23:15:19.561Z,2.20
2023-06-18T23:17:46.837Z,2.50
2023-06-18T23:20:14.169Z,2.10
2023-06-18T23:22:43.153Z,3.30
2023-06-18T23:25:10.405Z,2.80
2023-06-18T23:27:38.775Z,2.60
2023-06-18T23:30:06.756Z,2.70
2023-06-18T23:32:35.769Z,2.30
2023-06-18T23:35:02.856Z,2.00
2023-06-18T23:37:29.855Z,2.30
2023-06-18T23:39:56.794Z,3.10
2023-06-18T23:42:23.645Z,2.10
2023-06-18T23:44:51.662Z,2.40
2023-06-18T23:47:18.563Z,2.30
2023-06-18T23:49:46.026Z,2.30
2023-06-18T23:52:13.076Z,2.20
2023-06-18T23:54:40.352Z,2.70
2023-06-18T23:57:08.314Z,2.20
2023-06-18T23:59:35.264Z,2.10
